Morrow, AR (72749)

7:00 PM CST on December 19, 2014 (GMT -0600)
RAWS STRICKLER AR US | Change Station
CLOSE
Current Station
Personal Weather Station
Location: Canehill, AR
Elevation: 1708 ft
Nearby Weather Stations

Elev 1708 ft 35.87 °N, 94.30 °W | Updated 51 minutes ago

Overcast
Overcast
39 °F
Feels Like 39 °F
N
3
Wind Variable Wind from SSW
Gusts 7.0 mph

Today
High -- | Low -- °F
--% Chance of Precip.
Yesterday
High -- | Low -- °F
Precip. -- in
7:23 AM 5:06 PM
Waning Crescent, 5% visible
Pressure 30.20 in
Visibility 3.0 miles
Clouds Overcast 800 ft
Windchill 39 °F
Dew Point 39 °F
Humidity 100%
Rainfall 0.00 in
Snow Depth Not available.
UV 0 out of 12
Pollen 5.40 out of 12
Air Quality Not available.
Flu Activity Not available.
METAR KFYV 200053Z 14003KT 3SM BR OVC008 05/05 A3019 RMK AO2 SLP227 T00500050

More Conditions Fewer Conditions

Pressure 30.20 in
Visibility 3.0 miles
Clouds Overcast 800 ft
Windchill 39 °F
Dew Point 39 °F
Humidity 100%
Rainfall 0.00 in
Snow Depth Not available.
UV 0 out of 12
Pollen 5.40 out of 12
Air Quality Not available.
Flu Activity Not available.
METAR KFYV 200053Z 14003KT 3SM BR OVC008 05/05 A3019 RMK AO2 SLP227 T00500050

More Conditions Fewer Conditions

10-Day Weather Forecast

Almanac

Astronomy

Dec. 19, 2014 Rise Set
Actual Time
Civil Twilight
Nautical Twilight
Astronomical Twilight
Moon
Length of Visible Light
Length of Day
Tomorrow will be .
, % of the Moon is Illuminated

Today's Extremes

State Highs State Lows

Community

WunderPhotos

Upload Photos

1,779,095 photos uploaded!

WunderBlogs® & News

Nearby

Air Quality

  Air Quality AQ Index Pollutant
Not available.

Snow Depth

Station Depth Elevation

Earthquake Activity

City Distance Mag. Time & Date
Minimum magnitude displayed is 2.5.

Coastal Water Temperatures

Place Temperature

Nearby Weather Stations